createdAt,value
2022-11-24T00:00:39.244Z,7.90
2022-11-24T00:01:43.258Z,7.90
2022-11-24T00:02:48.114Z,7.90
2022-11-24T00:04:03.955Z,7.80
2022-11-24T00:05:08.818Z,7.80
2022-11-24T00:06:15.144Z,7.80
2022-11-24T00:07:20.088Z,7.80
2022-11-24T00:08:24.768Z,7.70
2022-11-24T00:09:30.042Z,7.60
2022-11-24T00:10:35.763Z,7.60
2022-11-24T00:11:40.313Z,7.60
2022-11-24T00:12:44.680Z,7.60
2022-11-24T00:13:49.351Z,7.60
2022-11-24T00:14:53.497Z,7.60
2022-11-24T00:16:18.210Z,7.70
2022-11-24T00:17:21.882Z,7.70
2022-11-24T00:18:25.526Z,7.70
2022-11-24T00:19:30.220Z,7.70
2022-11-24T00:20:34.305Z,7.70
2022-11-24T00:21:40.517Z,7.70
2022-11-24T00:22:44.651Z,7.70
2022-11-24T00:23:49.725Z,7.70
2022-11-24T00:24:54.168Z,7.60
2022-11-24T00:26:03.711Z,7.70
2022-11-24T00:27:07.859Z,7.70
2022-11-24T00:28:10.990Z,7.70
2022-11-24T00:29:14.804Z,7.80
2022-11-24T00:30:18.006Z,7.80
2022-11-24T00:31:28.352Z,7.80
2022-11-24T00:32:32.908Z,7.90
2022-11-24T00:33:37.973Z,7.90
2022-11-24T00:34:42.441Z,7.90
2022-11-24T00:35:45.495Z,7.90
2022-11-24T00:36:49.012Z,7.90
2022-11-24T00:37:55.135Z,7.90
2022-11-24T00:39:02.542Z,7.90
2022-11-24T00:40:06.985Z,7.90
2022-11-24T00:41:10.821Z,7.90
2022-11-24T00:42:15.339Z,7.80
2022-11-24T00:43:21.290Z,7.90
2022-11-24T00:44:24.838Z,7.90
2022-11-24T00:45:28.022Z,7.90
2022-11-24T00:46:31.473Z,7.90
2022-11-24T00:47:35.005Z,7.90
2022-11-24T00:48:38.255Z,7.90
2022-11-24T00:49:42.310Z,7.90
2022-11-24T00:50:46.034Z,7.90
2022-11-24T00:51:49.614Z,7.90
2022-11-24T00:52:52.650Z,8.00
2022-11-24T00:54:26.768Z,8.00
2022-11-24T00:55:33.269Z,8.00
2022-11-24T00:56:38.357Z,8.00
2022-11-24T00:57:42.129Z,8.00
2022-11-24T00:58:45.705Z,8.00
2022-11-24T00:59:48.998Z,8.00
2022-11-24T01:00:53.624Z,8.00
2022-11-24T01:01:56.379Z,8.00
2022-11-24T01:03:00.020Z,8.00
2022-11-24T01:04:05.776Z,8.00
2022-11-24T01:05:10.309Z,7.90
2022-11-24T01:06:17.202Z,7.80
2022-11-24T01:07:20.880Z,7.80
2022-11-24T01:08:24.315Z,7.80
2022-11-24T01:09:27.550Z,7.70
2022-11-24T01:10:31.060Z,7.60
2022-11-24T01:11:55.305Z,7.60
2022-11-24T01:12:59.445Z,7.50
2022-11-24T01:14:03.769Z,7.40
2022-11-24T01:15:07.561Z,7.30
2022-11-24T01:16:29.734Z,7.30
2022-11-24T01:17:34.012Z,7.20
2022-11-24T01:18:37.250Z,7.10
2022-11-24T01:19:40.534Z,7.10
2022-11-24T01:20:43.915Z,7.00
2022-11-24T01:21:47.575Z,7.10
2022-11-24T01:22:51.571Z,7.10
2022-11-24T01:23:56.579Z,7.10
2022-11-24T01:25:00.085Z,7.00
2022-11-24T01:26:07.426Z,7.00
2022-11-24T01:27:12.111Z,6.90
2022-11-24T01:28:17.447Z,6.90
2022-11-24T01:29:21.248Z,6.90
2022-11-24T01:30:25.293Z,6.90
2022-11-24T01:31:29.587Z,6.80
2022-11-24T01:32:38.991Z,6.80
2022-11-24T01:33:42.519Z,6.80
2022-11-24T01:34:45.800Z,6.80
2022-11-24T01:35:49.209Z,6.80
2022-11-24T01:36:52.704Z,6.70
2022-11-24T01:37:56.182Z,6.70
2022-11-24T01:38:59.653Z,6.60
2022-11-24T01:40:03.583Z,6.60
2022-11-24T01:41:12.241Z,6.60
2022-11-24T01:42:15.856Z,6.60
2022-11-24T01:43:23.377Z,6.60
2022-11-24T01:44:29.953Z,6.60
2022-11-24T01:45:41.994Z,6.50
2022-11-24T01:46:49.527Z,6.50
2022-11-24T01:47:52.969Z,6.50
2022-11-24T01:49:15.050Z,6.50
2022-11-24T01:50:20.123Z,6.40
2022-11-24T01:51:28.327Z,6.40
2022-11-24T01:52:39.574Z,6.30
2022-11-24T01:53:46.671Z,6.20
2022-11-24T01:55:14.573Z,6.20
2022-11-24T01:56:18.953Z,6.20
2022-11-24T01:57:49.311Z,6.10
2022-11-24T01:58:55.233Z,6.10
2022-11-24T02:00:18.315Z,6.10
2022-11-24T02:01:23.413Z,6.10
2022-11-24T02:02:30.251Z,6.10
2022-11-24T02:03:39.052Z,6.10
2022-11-24T02:04:43.214Z,6.00
2022-11-24T02:06:02.964Z,6.10
2022-11-24T02:07:08.475Z,6.10
2022-11-24T02:08:35.390Z,6.00
2022-11-24T02:09:48.052Z,6.10
2022-11-24T02:10:51.799Z,6.00
2022-11-24T02:11:56.876Z,5.90
2022-11-24T02:13:03.938Z,5.90
2022-11-24T02:14:11.539Z,5.90
2022-11-24T02:15:20.510Z,5.90
2022-11-24T02:16:25.267Z,5.90
2022-11-24T02:17:29.244Z,5.90
2022-11-24T02:18:34.301Z,5.90
2022-11-24T02:19:55.879Z,6.00
2022-11-24T02:21:01.988Z,6.10
2022-11-24T02:22:09.587Z,6.10
2022-11-24T02:23:16.087Z,6.10
2022-11-24T02:24:34.032Z,6.10
2022-11-24T02:25:47.985Z,6.10
2022-11-24T02:26:53.612Z,6.10
2022-11-24T02:27:59.876Z,6.20
2022-11-24T02:29:05.211Z,6.10
2022-11-24T02:30:10.661Z,6.10
2022-11-24T02:31:15.233Z,6.10
2022-11-24T02:32:21.142Z,6.10
2022-11-24T02:33:26.411Z,6.10
2022-11-24T02:34:31.342Z,6.00
2022-11-24T02:35:36.464Z,5.90
2022-11-24T02:36:40.675Z,5.80
2022-11-24T02:37:45.072Z,5.80
2022-11-24T02:38:49.510Z,5.80
2022-11-24T02:39:54.328Z,5.80
2022-11-24T02:41:00.912Z,5.70
2022-11-24T02:42:09.193Z,5.70
2022-11-24T02:43:20.259Z,5.70
2022-11-24T02:44:29.714Z,5.70
2022-11-24T02:45:33.057Z,5.60
2022-11-24T02:46:36.890Z,5.60
2022-11-24T02:47:40.944Z,5.60
2022-11-24T02:48:44.536Z,5.60
2022-11-24T02:49:47.742Z,5.60
2022-11-24T02:50:51.153Z,5.60
2022-11-24T02:51:55.099Z,5.70
2022-11-24T02:52:58.358Z,5.70
2022-11-24T02:54:02.039Z,5.70
2022-11-24T02:55:06.790Z,5.70
2022-11-24T02:56:11.097Z,5.70
2022-11-24T02:57:14.662Z,5.70
2022-11-24T02:58:18.876Z,5.70
2022-11-24T02:59:23.180Z,5.70
2022-11-24T03:00:26.594Z,5.70
2022-11-24T03:01:30.129Z,5.70
2022-11-24T03:02:34.920Z,5.70
2022-11-24T03:03:39.106Z,5.70
2022-11-24T03:04:42.408Z,5.70
2022-11-24T03:05:46.338Z,5.70
2022-11-24T03:06:51.131Z,5.70
2022-11-24T03:07:54.955Z,5.70
2022-11-24T03:08:58.162Z,5.80
2022-11-24T03:10:01.175Z,5.80
2022-11-24T03:11:05.498Z,5.80
2022-11-24T03:12:08.982Z,5.80
2022-11-24T03:13:13.046Z,5.80
2022-11-24T03:14:16.589Z,5.90
2022-11-24T03:15:20.739Z,5.90
2022-11-24T03:16:25.509Z,5.90
2022-11-24T03:17:30.739Z,5.90
2022-11-24T03:18:34.777Z,5.90
2022-11-24T03:19:38.392Z,5.90
2022-11-24T03:20:42.368Z,5.90
2022-11-24T03:21:45.359Z,6.00
2022-11-24T03:22:48.666Z,6.00
2022-11-24T03:23:54.834Z,5.90
2022-11-24T03:24:59.156Z,5.90
2022-11-24T03:26:13.841Z,5.90
2022-11-24T03:27:18.050Z,5.90
2022-11-24T03:28:21.446Z,5.90
2022-11-24T03:29:25.352Z,5.90
2022-11-24T03:30:29.779Z,5.90
2022-11-24T03:31:35.230Z,5.90
2022-11-24T03:32:39.183Z,5.80
2022-11-24T03:33:43.410Z,5.80
2022-11-24T03:34:48.099Z,5.80
2022-11-24T03:35:51.503Z,5.70
2022-11-24T03:36:54.730Z,5.70
2022-11-24T03:37:58.071Z,5.50
2022-11-24T03:39:02.389Z,5.50
2022-11-24T03:40:07.853Z,5.50
2022-11-24T03:41:11.888Z,5.40
2022-11-24T03:42:15.981Z,5.40
2022-11-24T03:43:20.451Z,5.30
2022-11-24T03:44:24.914Z,5.30
2022-11-24T03:45:45.593Z,5.30
2022-11-24T03:46:50.067Z,5.40
2022-11-24T03:47:54.341Z,5.40
2022-11-24T03:48:59.208Z,5.40
2022-11-24T03:50:04.009Z,5.40
2022-11-24T03:51:09.146Z,5.50
2022-11-24T03:52:14.204Z,5.50
2022-11-24T03:53:18.363Z,5.50
2022-11-24T03:54:22.006Z,5.50
2022-11-24T03:55:26.832Z,5.50
2022-11-24T03:56:30.336Z,5.60
2022-11-24T03:57:34.531Z,5.60
2022-11-24T03:58:38.620Z,5.60
2022-11-24T03:59:43.691Z,5.60
2022-11-24T04:00:49.863Z,5.70
2022-11-24T04:01:53.473Z,5.70
2022-11-24T04:02:56.948Z,5.70
2022-11-24T04:04:00.241Z,5.70
2022-11-24T04:05:04.370Z,5.70
2022-11-24T04:06:08.062Z,5.70
2022-11-24T04:07:13.764Z,5.60
2022-11-24T04:08:20.101Z,5.60
2022-11-24T04:09:24.922Z,5.50
2022-11-24T04:10:30.305Z,5.50
2022-11-24T04:11:53.416Z,5.50
2022-11-24T04:12:58.429Z,5.40
2022-11-24T04:14:02.078Z,5.40
2022-11-24T04:15:06.981Z,5.40
2022-11-24T04:16:10.930Z,5.40
2022-11-24T04:17:14.475Z,5.40
2022-11-24T04:18:18.377Z,5.40
2022-11-24T04:19:21.992Z,5.40
2022-11-24T04:20:26.125Z,5.40
2022-11-24T04:21:29.721Z,5.40
2022-11-24T04:22:33.379Z,5.40
2022-11-24T04:23:37.380Z,5.50
2022-11-24T04:24:40.793Z,5.40
2022-11-24T04:25:44.436Z,5.40
2022-11-24T04:26:49.153Z,5.40
2022-11-24T04:27:54.406Z,5.40
2022-11-24T04:28:57.571Z,5.40
2022-11-24T04:30:01.603Z,5.40
2022-11-24T04:31:06.543Z,5.30
2022-11-24T04:32:10.216Z,5.30
2022-11-24T04:33:14.550Z,5.30
2022-11-24T04:34:17.862Z,5.30
2022-11-24T04:35:21.870Z,5.30
2022-11-24T04:36:25.697Z,5.30
2022-11-24T04:37:29.267Z,5.30
2022-11-24T04:39:22.852Z,5.30
2022-11-24T04:39:58.151Z,5.30
2022-11-24T04:41:05.168Z,5.30
2022-11-24T04:42:09.689Z,5.30
2022-11-24T04:43:14.430Z,5.30
2022-11-24T04:44:18.682Z,5.30
2022-11-24T04:45:23.130Z,5.30
2022-11-24T04:46:26.687Z,5.30
2022-11-24T04:47:31.222Z,5.30
2022-11-24T04:48:34.844Z,5.40
2022-11-24T04:49:38.340Z,5.40
2022-11-24T04:50:42.516Z,5.30
2022-11-24T04:51:47.108Z,5.30
2022-11-24T04:52:51.916Z,5.30
2022-11-24T04:53:56.150Z,5.30
2022-11-24T04:55:00.493Z,5.20
2022-11-24T04:56:07.821Z,5.20
2022-11-24T04:57:17.533Z,5.20
2022-11-24T04:58:21.225Z,5.20
2022-11-24T04:59:24.677Z,5.20
2022-11-24T05:00:28.231Z,5.10
2022-11-24T05:01:32.697Z,5.10
2022-11-24T05:02:38.361Z,5.10
2022-11-24T05:03:42.520Z,5.10
2022-11-24T05:04:47.087Z,5.00
2022-11-24T05:05:51.671Z,5.00
2022-11-24T05:06:56.561Z,5.00
2022-11-24T05:08:02.445Z,5.00
2022-11-24T05:09:07.844Z,5.00
2022-11-24T05:10:30.110Z,5.00
2022-11-24T05:11:34.347Z,5.00
2022-11-24T05:12:38.759Z,5.00
2022-11-24T05:13:42.311Z,5.00
2022-11-24T05:14:46.334Z,5.00
2022-11-24T05:15:50.462Z,5.00
2022-11-24T05:16:55.367Z,5.00
2022-11-24T05:18:01.218Z,5.00
2022-11-24T05:19:06.206Z,5.00
2022-11-24T05:20:11.217Z,5.00
2022-11-24T05:21:16.102Z,5.00
2022-11-24T05:22:21.189Z,5.00
2022-11-24T05:23:25.123Z,5.00
2022-11-24T05:24:29.871Z,5.00
2022-11-24T05:25:35.451Z,5.10
2022-11-24T05:26:40.430Z,5.10
2022-11-24T05:27:45.754Z,5.10
2022-11-24T05:28:49.676Z,5.10
2022-11-24T05:29:53.848Z,5.10
2022-11-24T05:31:05.351Z,5.10
2022-11-24T05:32:09.434Z,5.10
2022-11-24T05:33:20.405Z,5.10
2022-11-24T05:34:23.713Z,5.20
2022-11-24T05:35:27.655Z,5.20
2022-11-24T05:36:50.636Z,5.20
2022-11-24T05:37:54.437Z,5.20
2022-11-24T05:38:59.529Z,5.20
2022-11-24T05:40:04.039Z,5.20
2022-11-24T05:41:10.500Z,5.20
2022-11-24T05:42:33.064Z,5.20
2022-11-24T05:43:37.884Z,5.20
2022-11-24T05:44:43.469Z,5.20
2022-11-24T05:45:47.207Z,5.20
2022-11-24T05:46:52.175Z,5.20
2022-11-24T05:47:56.297Z,5.10
2022-11-24T05:48:59.650Z,5.20
2022-11-24T05:50:05.960Z,5.10
2022-11-24T05:51:10.237Z,5.20
2022-11-24T05:52:15.652Z,5.10
2022-11-24T05:53:21.406Z,5.10
2022-11-24T05:54:26.220Z,5.00
2022-11-24T05:55:30.862Z,5.00
2022-11-24T05:56:35.372Z,5.00
2022-11-24T05:57:38.890Z,5.00
2022-11-24T05:58:44.566Z,5.00
2022-11-24T05:59:49.073Z,5.10
2022-11-24T06:00:52.125Z,5.00
2022-11-24T06:01:57.025Z,5.10
2022-11-24T06:03:02.888Z,5.10
2022-11-24T06:04:07.131Z,5.10
2022-11-24T06:05:12.126Z,5.20
2022-11-24T06:06:17.110Z,5.20
2022-11-24T06:07:21.988Z,5.20
2022-11-24T06:08:31.060Z,5.10
2022-11-24T06:09:40.399Z,5.10
2022-11-24T06:10:45.215Z,5.10
2022-11-24T06:11:50.744Z,5.10
2022-11-24T06:12:54.991Z,5.10
2022-11-24T06:13:59.389Z,5.10
2022-11-24T06:15:04.027Z,5.10
2022-11-24T06:16:10.519Z,5.00
2022-11-24T06:17:15.664Z,5.00
2022-11-24T06:18:19.874Z,5.00
2022-11-24T06:19:24.014Z,5.00
2022-11-24T06:20:32.417Z,5.00
2022-11-24T06:21:36.557Z,5.00
2022-11-24T06:22:40.560Z,5.00
2022-11-24T06:23:45.306Z,5.00
2022-11-24T06:24:55.152Z,5.00
2022-11-24T06:26:03.585Z,5.00
2022-11-24T06:27:08.875Z,5.10
2022-11-24T06:28:14.137Z,5.10
2022-11-24T06:29:18.676Z,5.10
2022-11-24T06:30:22.399Z,5.20
2022-11-24T06:31:26.302Z,5.20
2022-11-24T06:32:30.259Z,5.20
2022-11-24T06:33:39.714Z,5.20
2022-11-24T06:34:44.915Z,5.30
2022-11-24T06:35:49.929Z,5.30
2022-11-24T06:36:54.050Z,5.30
2022-11-24T06:37:58.800Z,5.40
2022-11-24T06:39:04.258Z,5.40
2022-11-24T06:40:12.294Z,5.40
2022-11-24T06:41:18.423Z,5.40
2022-11-24T06:42:22.357Z,5.50
2022-11-24T06:43:29.544Z,5.50
2022-11-24T06:44:34.311Z,5.50
2022-11-24T06:45:38.741Z,5.50
2022-11-24T06:46:42.419Z,5.60
2022-11-24T06:47:46.635Z,5.60
2022-11-24T06:48:53.687Z,5.60
2022-11-24T06:49:57.355Z,5.70
2022-11-24T06:51:08.721Z,5.70
2022-11-24T06:52:13.566Z,5.70
2022-11-24T06:53:17.834Z,5.80
2022-11-24T06:54:23.557Z,5.80
2022-11-24T06:55:27.450Z,5.90
2022-11-24T06:56:31.072Z,5.90
2022-11-24T06:57:36.219Z,6.00
2022-11-24T06:58:45.770Z,6.00
2022-11-24T06:59:51.159Z,6.10
2022-11-24T07:00:56.252Z,6.10
2022-11-24T07:02:01.761Z,6.10
2022-11-24T07:03:06.407Z,6.20
2022-11-24T07:04:11.064Z,6.20
2022-11-24T07:05:15.715Z,6.20
2022-11-24T07:06:20.020Z,6.30
2022-11-24T07:07:24.384Z,6.30
2022-11-24T07:08:30.635Z,6.30
2022-11-24T07:09:33.750Z,6.40
2022-11-24T07:10:36.519Z,6.40
2022-11-24T07:11:39.568Z,6.40
2022-11-24T07:12:42.235Z,6.50
2022-11-24T07:13:46.186Z,6.50
2022-11-24T07:14:48.417Z,6.60
2022-11-24T07:15:52.424Z,6.70
2022-11-24T07:16:56.528Z,6.70
2022-11-24T07:17:59.856Z,6.70
2022-11-24T07:19:03.290Z,6.80
2022-11-24T07:20:07.473Z,6.90
2022-11-24T07:21:10.498Z,6.90
2022-11-24T07:22:14.046Z,7.00
2022-11-24T07:23:18.794Z,7.00
2022-11-24T07:24:22.340Z,7.10
2022-11-24T07:25:26.698Z,7.10
2022-11-24T07:26:29.616Z,7.10
2022-11-24T07:27:32.060Z,7.10
2022-11-24T07:28:37.719Z,7.10
2022-11-24T07:29:41.101Z,7.10
2022-11-24T07:30:45.254Z,7.20
2022-11-24T07:31:49.637Z,7.10
2022-11-24T07:32:58.668Z,7.20
2022-11-24T07:34:01.547Z,7.20
2022-11-24T07:35:04.301Z,7.20
2022-11-24T07:36:08.201Z,7.30
2022-11-24T07:37:10.941Z,7.30
2022-11-24T07:38:13.405Z,7.30
2022-11-24T07:39:15.933Z,7.40
2022-11-24T07:40:19.323Z,7.50
2022-11-24T07:41:22.285Z,7.60
2022-11-24T07:42:25.879Z,7.60
2022-11-24T07:43:31.453Z,7.70
2022-11-24T07:44:35.930Z,7.80
2022-11-24T07:45:39.426Z,7.90
2022-11-24T07:46:42.957Z,8.10
2022-11-24T07:47:45.674Z,8.40
2022-11-24T07:48:48.703Z,8.80
2022-11-24T07:49:52.362Z,9.20
2022-11-24T07:50:56.281Z,9.50
2022-11-24T07:52:04.533Z,9.90
2022-11-24T07:53:09.759Z,10.20
2022-11-24T07:54:14.258Z,10.50
2022-11-24T07:55:18.314Z,10.70
2022-11-24T07:56:22.605Z,11.00
2022-11-24T07:57:25.828Z,11.30
2022-11-24T07:58:34.104Z,11.50
2022-11-24T07:59:36.508Z,11.90
2022-11-24T08:00:39.306Z,12.10
2022-11-24T08:01:43.701Z,12.40
2022-11-24T08:02:47.533Z,12.60
2022-11-24T08:03:50.147Z,12.80
2022-11-24T08:04:52.971Z,12.80
2022-11-24T08:07:23.729Z,13.30
2022-11-24T08:08:27.668Z,13.50
2022-11-24T08:09:31.803Z,13.50
2022-11-24T08:10:36.214Z,13.70
2022-11-24T08:11:39.424Z,13.80
2022-11-24T08:12:43.797Z,14.00
2022-11-24T08:13:47.983Z,14.10
2022-11-24T08:14:51.418Z,14.20
2022-11-24T08:15:54.020Z,14.20
2022-11-24T08:17:00.512Z,14.20
2022-11-24T08:18:03.965Z,14.20
2022-11-24T08:19:06.654Z,14.30
2022-11-24T08:20:09.527Z,14.30
2022-11-24T08:21:15.452Z,14.40
2022-11-24T08:22:18.176Z,14.40
2022-11-24T08:23:20.583Z,14.50
2022-11-24T08:24:23.916Z,14.70
2022-11-24T08:25:33.981Z,14.80
2022-11-24T08:26:37.174Z,15.00
2022-11-24T08:27:40.597Z,15.10
2022-11-24T08:28:43.799Z,15.30
2022-11-24T08:29:46.486Z,15.30
2022-11-24T08:30:48.996Z,15.40
2022-11-24T08:31:53.288Z,15.50
2022-11-24T08:32:58.816Z,15.30
2022-11-24T08:34:02.621Z,15.10
2022-11-24T08:35:14.021Z,14.70
2022-11-24T08:36:19.598Z,14.40
2022-11-24T08:37:24.310Z,14.30
2022-11-24T08:38:28.497Z,14.00
2022-11-24T08:39:31.330Z,14.00
2022-11-24T08:40:34.593Z,14.20
2022-11-24T08:41:37.144Z,14.20
2022-11-24T08:42:40.452Z,14.20
2022-11-24T08:43:43.446Z,13.90
2022-11-24T08:44:46.105Z,13.60
2022-11-24T08:45:49.513Z,13.50
2022-11-24T08:46:55.832Z,13.20
2022-11-24T08:48:00.746Z,12.90
2022-11-24T08:49:05.621Z,12.80
2022-11-24T08:50:09.065Z,12.70
2022-11-24T08:51:15.476Z,12.50
2022-11-24T08:52:18.170Z,12.50
2022-11-24T08:53:22.054Z,12.50
2022-11-24T08:54:26.673Z,12.70
2022-11-24T08:55:29.397Z,12.90
2022-11-24T08:56:34.926Z,12.80
2022-11-24T08:57:40.095Z,12.80
2022-11-24T08:58:43.474Z,12.90
2022-11-24T08:59:46.810Z,12.80
2022-11-24T09:00:50.159Z,12.80
2022-11-24T09:01:53.434Z,12.80
2022-11-24T09:02:58.380Z,12.90
2022-11-24T09:04:01.185Z,13.50
2022-11-24T09:05:07.241Z,13.90
2022-11-24T09:06:25.861Z,14.40
2022-11-24T09:07:29.181Z,14.90
2022-11-24T09:08:32.814Z,15.40
2022-11-24T09:09:37.604Z,15.80
2022-11-24T09:10:40.808Z,16.10
2022-11-24T09:11:45.484Z,16.30
2022-11-24T09:12:49.437Z,16.60
2022-11-24T09:13:54.015Z,16.90
2022-11-24T09:14:59.333Z,17.00
2022-11-24T09:16:09.965Z,17.30
2022-11-24T09:17:13.453Z,17.40
2022-11-24T09:18:17.233Z,17.60
2022-11-24T09:19:20.574Z,17.90
2022-11-24T09:20:25.191Z,18.10
2022-11-24T09:21:29.208Z,18.40
2022-11-24T09:22:32.256Z,18.50
2022-11-24T09:23:34.921Z,18.50
